createdAt,value
2017-08-03T00:01:24.071Z,19.20
2017-08-03T00:03:53.358Z,19.30
2017-08-03T00:06:22.644Z,19.20
2017-08-03T00:08:52.675Z,19.20
2017-08-03T00:11:21.986Z,19.20
2017-08-03T00:13:51.261Z,19.20
2017-08-03T00:16:20.523Z,19.20
2017-08-03T00:18:49.794Z,19.20
2017-08-03T00:21:19.061Z,19.20
2017-08-03T00:23:48.349Z,19.20
2017-08-03T00:26:17.885Z,19.20
2017-08-03T00:28:47.925Z,19.10
2017-08-03T00:31:17.243Z,19.10
2017-08-03T00:33:46.494Z,19.10
2017-08-03T00:36:15.742Z,19.20
2017-08-03T00:38:45.236Z,19.20
2017-08-03T00:41:14.492Z,19.20
2017-08-03T00:43:43.814Z,19.10
2017-08-03T00:46:13.867Z,19.10
2017-08-03T00:48:43.142Z,19.10
2017-08-03T00:51:12.453Z,19.10
2017-08-03T00:53:41.713Z,19.10
2017-08-03T00:56:10.981Z,19.10
2017-08-03T00:58:40.247Z,19.10
2017-08-03T01:01:10.301Z,19.00
2017-08-03T01:03:39.552Z,19.00
2017-08-03T01:06:08.845Z,19.00
2017-08-03T01:08:38.152Z,19.10
2017-08-03T01:11:07.391Z,19.10
2017-08-03T01:13:36.865Z,19.10
2017-08-03T01:16:06.907Z,19.10
2017-08-03T01:18:36.194Z,19.10
2017-08-03T01:21:05.453Z,19.10
2017-08-03T01:23:35.037Z,19.10
2017-08-03T01:26:04.317Z,19.10
2017-08-03T01:28:33.570Z,19.10
2017-08-03T01:31:03.643Z,19.10
2017-08-03T01:33:33.456Z,19.10
2017-08-03T01:36:02.680Z,19.10
2017-08-03T01:38:32.950Z,19.10
2017-08-03T01:41:03.049Z,19.00
2017-08-03T01:43:32.317Z,19.00
2017-08-03T01:46:01.850Z,19.10
2017-08-03T01:48:31.126Z,19.10
2017-08-03T01:51:00.450Z,19.10
2017-08-03T01:53:29.830Z,19.10
2017-08-03T01:55:59.092Z,19.10
2017-08-03T01:58:29.161Z,19.10
2017-08-03T02:00:58.419Z,19.10
2017-08-03T02:03:27.672Z,19.10
2017-08-03T02:05:56.972Z,19.10
2017-08-03T02:08:26.213Z,19.10
2017-08-03T02:10:55.506Z,19.00
2017-08-03T02:13:25.522Z,19.10
2017-08-03T02:15:54.800Z,19.00
2017-08-03T02:18:24.066Z,19.10
2017-08-03T02:20:53.338Z,19.10
2017-08-03T02:23:23.461Z,19.10
2017-08-03T02:25:53.599Z,19.10
2017-08-03T02:28:22.915Z,19.10
2017-08-03T02:30:52.342Z,19.20
2017-08-03T02:33:21.606Z,19.30
2017-08-03T02:35:50.993Z,19.30
2017-08-03T02:38:21.022Z,19.30
2017-08-03T02:40:50.354Z,19.30
2017-08-03T02:43:19.695Z,19.30
2017-08-03T02:45:48.973Z,19.40
2017-08-03T02:48:18.337Z,19.40
2017-08-03T02:50:47.597Z,19.30
2017-08-03T02:53:16.869Z,19.30
2017-08-03T02:55:46.134Z,19.30
2017-08-03T02:58:15.382Z,19.30
2017-08-03T03:00:44.657Z,19.30
2017-08-03T03:03:13.926Z,19.30
2017-08-03T03:05:43.958Z,19.30
2017-08-03T03:08:13.267Z,19.30
2017-08-03T03:10:42.535Z,19.30
2017-08-03T03:13:11.792Z,19.30
2017-08-03T03:15:41.048Z,19.30
2017-08-03T03:18:11.437Z,19.40
2017-08-03T03:20:40.690Z,19.30
2017-08-03T03:23:10.692Z,19.40
2017-08-03T03:25:39.980Z,19.40
2017-08-03T03:28:09.382Z,19.40
2017-08-03T03:30:38.629Z,19.50
2017-08-03T03:33:07.933Z,19.50
2017-08-03T03:35:37.190Z,19.40
2017-08-03T03:38:06.699Z,19.40
2017-08-03T03:40:36.025Z,19.40
2017-08-03T03:43:05.292Z,19.40
2017-08-03T03:45:35.015Z,19.50
2017-08-03T03:48:04.613Z,19.50
2017-08-03T03:50:34.070Z,19.60
2017-08-03T03:53:03.583Z,19.60
2017-08-03T03:58:08.185Z,19.60
2017-08-03T04:00:39.029Z,19.70
2017-08-03T04:03:08.305Z,19.70
2017-08-03T04:05:37.563Z,19.70
2017-08-03T04:08:06.934Z,19.70
2017-08-03T04:10:36.222Z,19.70
2017-08-03T04:13:06.250Z,19.80
2017-08-03T04:15:36.288Z,19.70
2017-08-03T04:18:05.538Z,19.70
2017-08-03T04:20:35.025Z,19.70
2017-08-03T04:23:04.337Z,19.80
2017-08-03T04:25:34.381Z,19.80
2017-08-03T04:28:03.615Z,19.80
2017-08-03T04:30:33.010Z,19.80
2017-08-03T04:33:02.280Z,19.90
2017-08-03T04:35:31.614Z,20.00
2017-08-03T04:38:00.894Z,20.00
2017-08-03T04:40:30.909Z,20.20
2017-08-03T04:43:00.329Z,20.20
2017-08-03T04:45:30.385Z,20.30
2017-08-03T04:47:59.628Z,20.30
2017-08-03T04:50:28.950Z,20.20
2017-08-03T04:52:58.207Z,20.20
2017-08-03T04:55:27.491Z,20.20
2017-08-03T04:57:56.811Z,20.20
2017-08-03T05:00:26.055Z,20.20
2017-08-03T05:02:56.094Z,20.30
2017-08-03T05:05:25.678Z,20.30
2017-08-03T05:07:55.721Z,20.40
2017-08-03T05:10:24.969Z,20.40
2017-08-03T05:12:54.421Z,20.50
2017-08-03T05:15:23.684Z,20.60
2017-08-03T05:17:52.993Z,20.70
2017-08-03T05:20:22.245Z,20.90
2017-08-03T05:22:51.536Z,21.00
2017-08-03T05:25:20.986Z,21.10
2017-08-03T05:27:50.405Z,21.10
2017-08-03T05:30:19.646Z,21.10
2017-08-03T05:32:48.921Z,21.10
2017-08-03T05:35:18.186Z,21.10
2017-08-03T05:37:47.625Z,21.20
2017-08-03T05:40:17.663Z,21.20
2017-08-03T05:42:46.921Z,21.20
2017-08-03T05:45:16.390Z,21.20
2017-08-03T05:47:45.856Z,21.10
2017-08-03T05:50:15.881Z,21.20
2017-08-03T05:52:45.141Z,21.20
2017-08-03T05:55:14.445Z,21.30
2017-08-03T05:57:43.713Z,21.30
2017-08-03T06:00:12.973Z,21.30
2017-08-03T06:02:42.459Z,21.40
2017-08-03T06:05:11.698Z,21.50
2017-08-03T06:07:40.981Z,21.60
2017-08-03T06:10:10.341Z,21.60
2017-08-03T06:12:39.613Z,21.70
2017-08-03T06:15:08.855Z,21.60
2017-08-03T06:17:38.139Z,21.50
2017-08-03T06:20:07.407Z,21.60
2017-08-03T06:22:36.677Z,21.70
2017-08-03T06:25:05.998Z,21.90
2017-08-03T06:27:35.722Z,22.20
2017-08-03T06:30:05.194Z,22.50
2017-08-03T06:32:34.510Z,22.70
2017-08-03T06:35:03.778Z,22.80
2017-08-03T06:37:33.030Z,23.10
2017-08-03T06:40:02.299Z,23.40
2017-08-03T06:42:31.559Z,23.50
2017-08-03T06:45:00.961Z,23.70
2017-08-03T06:47:30.209Z,24.00
2017-08-03T06:49:59.462Z,24.00
2017-08-03T06:52:29.102Z,24.00
2017-08-03T06:54:58.396Z,24.20
2017-08-03T06:57:27.656Z,24.30
2017-08-03T06:59:56.910Z,24.30
2017-08-03T07:02:26.347Z,24.20
2017-08-03T07:04:55.763Z,24.20
2017-08-03T07:07:25.261Z,24.10
2017-08-03T07:09:54.522Z,24.10
2017-08-03T07:12:23.790Z,24.30
2017-08-03T07:14:53.062Z,24.30
2017-08-03T07:17:22.317Z,24.30
2017-08-03T07:19:51.614Z,24.40
2017-08-03T07:22:20.892Z,24.30
2017-08-03T07:24:50.149Z,24.30
2017-08-03T07:27:19.433Z,24.10
2017-08-03T07:29:48.729Z,23.80
2017-08-03T07:32:18.008Z,23.70
2017-08-03T07:34:47.451Z,23.80
2017-08-03T07:37:16.718Z,23.80
2017-08-03T07:39:46.009Z,23.60
2017-08-03T07:42:15.292Z,23.40
2017-08-03T07:44:44.556Z,23.30
2017-08-03T07:47:13.837Z,23.20
2017-08-03T07:49:43.123Z,23.00
2017-08-03T07:52:12.378Z,22.80
2017-08-03T07:54:41.650Z,22.50
2017-08-03T07:57:11.675Z,22.20
2017-08-03T07:59:41.094Z,22.10
2017-08-03T08:02:11.295Z,21.90
2017-08-03T08:04:40.569Z,21.90
2017-08-03T08:07:09.843Z,21.90
2017-08-03T08:09:39.125Z,21.90
2017-08-03T08:12:09.365Z,21.90
2017-08-03T08:14:38.695Z,21.90
2017-08-03T08:17:07.979Z,21.80
2017-08-03T08:19:37.246Z,21.70
2017-08-03T08:22:06.653Z,21.60
2017-08-03T08:24:35.914Z,21.60
2017-08-03T08:27:05.201Z,21.70
2017-08-03T08:29:34.473Z,21.80
2017-08-03T08:32:03.869Z,21.90
2017-08-03T08:34:33.427Z,22.10
2017-08-03T08:37:02.774Z,22.10
2017-08-03T08:39:32.006Z,22.10
2017-08-03T08:42:01.335Z,22.30
2017-08-03T08:44:30.666Z,22.40
2017-08-03T08:46:59.921Z,22.50
2017-08-03T08:49:29.177Z,22.70
2017-08-03T08:51:59.267Z,22.70
2017-08-03T08:54:28.974Z,22.70
2017-08-03T08:56:58.241Z,22.90
2017-08-03T08:59:27.482Z,23.00
2017-08-03T09:01:56.745Z,23.10
2017-08-03T09:04:26.024Z,23.30
2017-08-03T09:06:55.274Z,23.30
2017-08-03T09:09:24.557Z,23.30
2017-08-03T09:11:53.893Z,23.40
2017-08-03T09:14:23.176Z,23.50
2017-08-03T09:16:52.540Z,23.70
2017-08-03T09:19:21.803Z,23.90
2017-08-03T09:21:51.853Z,24.00
2017-08-03T09:24:21.106Z,23.90
2017-08-03T09:26:50.542Z,24.10
2017-08-03T09:29:20.603Z,24.30
2017-08-03T09:31:49.862Z,24.30
2017-08-03T09:34:19.166Z,24.10
2017-08-03T09:36:48.429Z,23.90
2017-08-03T09:39:17.773Z,23.80
2017-08-03T09:41:47.043Z,23.80
2017-08-03T09:44:16.325Z,23.80
2017-08-03T09:46:45.939Z,23.80
2017-08-03T09:49:15.217Z,23.80
2017-08-03T09:51:45.238Z,24.00
2017-08-03T09:54:14.516Z,24.00
2017-08-03T09:56:43.785Z,24.20
2017-08-03T09:59:13.246Z,24.30
2017-08-03T10:01:43.273Z,24.60
2017-08-03T10:04:12.547Z,24.50
2017-08-03T10:06:41.818Z,24.60
2017-08-03T10:09:11.104Z,24.70
2017-08-03T10:11:40.398Z,24.70
2017-08-03T10:14:09.690Z,24.80
2017-08-03T10:16:38.940Z,25.00
2017-08-03T10:19:08.217Z,25.20
2017-08-03T10:21:37.461Z,25.40
2017-08-03T10:24:06.781Z,25.50
2017-08-03T10:26:36.066Z,25.50
2017-08-03T10:29:05.333Z,25.80
2017-08-03T10:31:34.617Z,25.80
2017-08-03T10:34:03.883Z,26.00
2017-08-03T10:36:33.943Z,26.20
2017-08-03T10:39:03.197Z,26.20
2017-08-03T10:41:32.498Z,26.30
2017-08-03T10:44:01.757Z,26.20
2017-08-03T10:46:31.011Z,26.30
2017-08-03T10:49:01.087Z,26.50
2017-08-03T10:51:30.334Z,26.50
2017-08-03T10:53:59.579Z,26.60
2017-08-03T10:56:28.843Z,27.00
2017-08-03T10:58:58.137Z,27.40
2017-08-03T11:01:28.188Z,27.70
2017-08-03T11:03:57.518Z,27.70
2017-08-03T11:06:27.031Z,28.00
2017-08-03T11:08:56.542Z,28.20
2017-08-03T11:11:25.793Z,28.70
2017-08-03T11:13:55.041Z,29.70
2017-08-03T11:16:24.306Z,31.10
2017-08-03T11:18:53.571Z,32.00
2017-08-03T11:21:23.603Z,32.60
2017-08-03T11:23:53.008Z,32.60
2017-08-03T11:26:22.269Z,33.40
2017-08-03T11:28:51.995Z,33.20
2017-08-03T11:31:22.030Z,31.90
2017-08-03T11:33:51.291Z,31.80
2017-08-03T11:36:20.529Z,31.30
2017-08-03T11:38:50.565Z,30.30
2017-08-03T11:41:19.879Z,30.30
2017-08-03T11:43:49.224Z,29.80
2017-08-03T11:46:18.524Z,29.60
2017-08-03T11:48:47.750Z,29.20
2017-08-03T11:51:17.017Z,29.10
2017-08-03T11:53:46.253Z,28.90
2017-08-03T11:56:16.345Z,28.70
2017-08-03T11:58:45.612Z,28.70
2017-08-03T12:01:15.588Z,28.90
2017-08-03T12:03:44.949Z,29.30
2017-08-03T12:06:14.219Z,29.30
2017-08-03T12:08:43.562Z,29.30
2017-08-03T12:11:12.803Z,29.40
2017-08-03T12:13:42.083Z,29.30
2017-08-03T12:16:11.359Z,29.30
2017-08-03T12:18:40.622Z,29.30
2017-08-03T12:21:09.872Z,29.30
2017-08-03T12:23:39.129Z,28.90
2017-08-03T12:26:08.495Z,28.80
2017-08-03T12:28:37.927Z,28.50
2017-08-03T12:31:07.194Z,28.50
2017-08-03T12:33:36.698Z,28.50
2017-08-03T12:36:06.021Z,28.40
2017-08-03T12:38:35.282Z,28.50
2017-08-03T12:41:04.631Z,28.70
2017-08-03T12:43:34.660Z,28.70
2017-08-03T12:46:03.927Z,28.70
2017-08-03T12:48:33.205Z,28.60
2017-08-03T12:51:02.488Z,28.60
2017-08-03T12:53:31.726Z,28.60
2017-08-03T12:56:00.996Z,28.50
2017-08-03T12:58:30.265Z,28.50
2017-08-03T13:00:59.529Z,28.50
2017-08-03T13:03:28.790Z,28.40
2017-08-03T13:05:58.254Z,28.30
2017-08-03T13:08:27.950Z,28.40
2017-08-03T13:10:57.210Z,28.40
2017-08-03T13:13:26.468Z,28.20
2017-08-03T13:15:56.632Z,28.30
2017-08-03T13:18:26.011Z,28.40
2017-08-03T13:20:55.265Z,28.30
2017-08-03T13:23:24.521Z,28.50
2017-08-03T13:25:53.778Z,28.70
2017-08-03T13:28:23.181Z,28.80
2017-08-03T13:30:52.470Z,29.10
2017-08-03T13:33:21.732Z,29.30
2017-08-03T13:35:51.006Z,29.50
2017-08-03T13:38:20.327Z,29.70
2017-08-03T13:40:49.568Z,29.80
2017-08-03T13:43:18.823Z,29.70
2017-08-03T13:45:48.832Z,29.70
2017-08-03T13:48:18.085Z,29.70
2017-08-03T13:50:47.348Z,29.50
2017-08-03T13:53:17.102Z,29.30
2017-08-03T13:55:46.377Z,29.60
2017-08-03T13:58:15.631Z,29.80
2017-08-03T14:00:45.665Z,29.60
2017-08-03T14:03:14.943Z,29.50
2017-08-03T14:05:44.866Z,29.50
2017-08-03T14:08:14.134Z,29.40
2017-08-03T14:10:43.411Z,29.50
2017-08-03T14:13:12.696Z,29.70
2017-08-03T14:15:42.625Z,30.00
2017-08-03T14:18:11.979Z,30.10
2017-08-03T14:20:41.228Z,30.30
2017-08-03T14:23:10.490Z,30.40
2017-08-03T14:25:40.799Z,30.40
2017-08-03T14:28:10.291Z,30.40
2017-08-03T14:30:39.562Z,30.30
2017-08-03T14:33:08.814Z,30.10
2017-08-03T14:35:38.079Z,29.90
2017-08-03T14:38:07.557Z,29.70
2017-08-03T14:40:36.812Z,29.50
2017-08-03T14:43:06.082Z,29.60
2017-08-03T14:45:35.535Z,29.30
2017-08-03T14:48:04.817Z,29.20
2017-08-03T14:50:34.113Z,29.20
2017-08-03T14:53:03.396Z,29.20
2017-08-03T14:55:32.654Z,29.30
2017-08-03T14:58:02.702Z,29.20
2017-08-03T15:00:31.955Z,29.20
2017-08-03T15:03:01.245Z,29.30
2017-08-03T15:05:30.539Z,29.50
2017-08-03T15:07:59.770Z,29.70
2017-08-03T15:10:29.805Z,29.70
2017-08-03T15:12:59.080Z,29.70
2017-08-03T15:15:28.310Z,29.30
2017-08-03T15:17:57.578Z,29.40
2017-08-03T15:20:27.599Z,29.20
2017-08-03T15:22:56.882Z,29.20
2017-08-03T15:25:26.177Z,29.10
2017-08-03T15:27:55.413Z,29.00
2017-08-03T15:30:25.503Z,28.80
2017-08-03T15:32:54.804Z,28.80
2017-08-03T15:35:24.055Z,28.90
2017-08-03T15:37:53.453Z,29.10
2017-08-03T15:40:22.708Z,28.90
2017-08-03T15:42:51.945Z,28.70
2017-08-03T15:45:21.221Z,28.70
2017-08-03T15:47:50.517Z,28.60
2017-08-03T15:50:19.764Z,28.40
2017-08-03T15:52:49.122Z,28.30
2017-08-03T15:55:18.518Z,28.20
2017-08-03T15:57:47.801Z,28.20
2017-08-03T16:00:17.103Z,28.10
2017-08-03T16:02:46.356Z,28.30
2017-08-03T16:05:15.617Z,28.40
2017-08-03T16:07:44.861Z,28.70
2017-08-03T16:10:14.155Z,28.60
2017-08-03T16:12:44.171Z,28.80
2017-08-03T16:15:13.686Z,28.70
2017-08-03T16:17:42.954Z,28.70
2017-08-03T16:20:12.233Z,28.50
2017-08-03T16:22:41.549Z,28.60
2017-08-03T16:25:10.830Z,28.80
2017-08-03T16:27:40.166Z,28.80
2017-08-03T16:30:09.410Z,28.80
2017-08-03T16:32:38.718Z,28.80
2017-08-03T16:35:08.054Z,28.80
2017-08-03T16:37:37.441Z,28.80
2017-08-03T16:40:06.717Z,28.60
2017-08-03T16:42:35.961Z,28.30
2017-08-03T16:45:05.240Z,28.00
2017-08-03T16:47:34.486Z,27.70
2017-08-03T16:50:04.511Z,27.20
2017-08-03T16:52:33.800Z,27.10
2017-08-03T16:55:03.447Z,27.00
2017-08-03T16:57:32.712Z,26.70
2017-08-03T17:00:01.978Z,26.70
2017-08-03T17:02:31.235Z,26.70
2017-08-03T17:05:00.659Z,26.60
2017-08-03T17:07:29.906Z,26.50
2017-08-03T17:09:59.188Z,26.40
2017-08-03T17:12:28.703Z,26.50
2017-08-03T17:14:58.374Z,26.50
2017-08-03T17:17:27.676Z,26.50
2017-08-03T17:19:57.022Z,26.40
2017-08-03T17:22:26.299Z,26.40
2017-08-03T17:24:55.621Z,26.30
2017-08-03T17:27:24.881Z,26.10
2017-08-03T17:29:54.372Z,26.10
2017-08-03T17:32:23.642Z,25.90
2017-08-03T17:34:52.905Z,25.90
2017-08-03T17:37:22.137Z,25.70
2017-08-03T17:39:51.405Z,25.60
2017-08-03T17:42:20.661Z,25.50
2017-08-03T17:44:49.925Z,25.40
2017-08-03T17:47:19.354Z,25.40
2017-08-03T17:49:48.589Z,25.40
2017-08-03T17:52:17.858Z,25.30
2017-08-03T17:54:47.174Z,25.40
2017-08-03T17:57:16.478Z,25.40
2017-08-03T17:59:45.897Z,25.30
2017-08-03T18:02:15.177Z,25.30
2017-08-03T18:04:45.185Z,25.20
2017-08-03T18:07:14.454Z,25.20
2017-08-03T18:09:43.799Z,25.20
2017-08-03T18:12:13.044Z,25.20
2017-08-03T18:14:42.517Z,25.20
2017-08-03T18:17:12.548Z,25.00
2017-08-03T18:19:41.925Z,25.00
2017-08-03T18:22:11.961Z,24.70
2017-08-03T18:24:41.241Z,24.60
2017-08-03T18:27:10.479Z,24.50
2017-08-03T18:29:39.724Z,24.30
2017-08-03T18:32:09.000Z,24.20
2017-08-03T18:34:38.243Z,24.10
2017-08-03T18:37:07.504Z,23.90
2017-08-03T18:39:36.750Z,23.70
2017-08-03T18:42:06.848Z,23.40
2017-08-03T18:44:36.093Z,23.40
2017-08-03T18:47:05.373Z,23.30
2017-08-03T18:49:34.810Z,23.10
2017-08-03T18:52:04.053Z,23.00
2017-08-03T18:54:33.326Z,22.90
2017-08-03T18:57:02.705Z,22.80
2017-08-03T18:59:32.838Z,22.70
2017-08-03T19:02:02.092Z,22.60
2017-08-03T19:04:31.473Z,22.50
2017-08-03T19:07:00.742Z,22.40
2017-08-03T19:09:30.134Z,22.20
2017-08-03T19:11:59.377Z,22.00
2017-08-03T19:14:29.483Z,21.80
2017-08-03T19:16:58.734Z,21.80
2017-08-03T19:19:28.783Z,21.50
2017-08-03T19:21:58.065Z,21.50
2017-08-03T19:24:27.306Z,21.40
2017-08-03T19:26:56.580Z,21.30
2017-08-03T19:29:25.850Z,21.30
2017-08-03T19:31:56.016Z,21.10
2017-08-03T19:34:25.271Z,21.10
2017-08-03T19:36:54.621Z,21.10
2017-08-03T19:39:23.885Z,21.10
2017-08-03T19:41:53.938Z,21.20
2017-08-03T19:44:23.197Z,21.10
2017-08-03T19:46:52.466Z,21.20
2017-08-03T19:49:22.153Z,21.00
2017-08-03T19:51:51.801Z,21.00
2017-08-03T19:54:21.347Z,20.90
2017-08-03T19:56:50.632Z,20.90
2017-08-03T19:59:20.705Z,20.80
2017-08-03T20:01:50.101Z,20.80
2017-08-03T20:04:19.597Z,20.60
2017-08-03T20:06:48.878Z,20.60
2017-08-03T20:12:17.949Z,20.50
2017-08-03T20:14:47.194Z,20.40
2017-08-03T20:17:16.490Z,20.40
2017-08-03T20:19:45.744Z,20.40
2017-08-03T20:22:15.152Z,20.40
2017-08-03T20:24:44.431Z,20.50
2017-08-03T20:27:13.711Z,20.20
2017-08-03T20:29:43.745Z,20.20
2017-08-03T20:32:13.076Z,20.20
2017-08-03T20:34:42.330Z,20.10
2017-08-03T20:37:11.612Z,20.00
2017-08-03T20:39:41.970Z,20.00
2017-08-03T20:42:11.230Z,19.90
2017-08-03T20:44:41.339Z,19.80
2017-08-03T20:47:10.598Z,19.70
2017-08-03T20:49:39.868Z,19.60
2017-08-03T20:52:09.135Z,19.70
2017-08-03T20:54:38.402Z,19.60
2017-08-03T20:57:07.661Z,19.50
2017-08-03T20:59:37.793Z,19.40
2017-08-03T21:02:07.823Z,19.40
2017-08-03T21:04:37.130Z,19.40
2017-08-03T21:07:06.376Z,19.30
2017-08-03T21:09:35.653Z,19.30
2017-08-03T21:12:04.937Z,19.20
2017-08-03T21:14:34.187Z,19.30
2017-08-03T21:17:03.523Z,19.30
2017-08-03T21:19:33.550Z,19.20
2017-08-03T21:22:02.911Z,19.20
2017-08-03T21:24:32.138Z,19.20
2017-08-03T21:27:01.455Z,19.10
2017-08-03T21:29:30.710Z,19.20
2017-08-03T21:32:00.020Z,19.10
2017-08-03T21:34:29.367Z,19.20
2017-08-03T21:36:58.590Z,19.20
2017-08-03T21:39:27.874Z,19.20
2017-08-03T21:41:57.244Z,19.20
2017-08-03T21:44:26.649Z,19.20
2017-08-03T21:46:55.938Z,19.20
2017-08-03T21:49:25.213Z,19.20
2017-08-03T21:51:54.457Z,19.20
2017-08-03T21:54:23.807Z,19.20
2017-08-03T21:56:53.078Z,19.20
2017-08-03T21:59:22.318Z,19.20
2017-08-03T22:01:51.677Z,19.10
2017-08-03T22:04:20.934Z,19.10
2017-08-03T22:06:50.212Z,19.20
2017-08-03T22:09:19.544Z,19.20
2017-08-03T22:11:48.831Z,19.20
2017-08-03T22:14:18.113Z,19.30
2017-08-03T22:16:47.367Z,19.20
2017-08-03T22:19:17.409Z,19.10
2017-08-03T22:21:47.182Z,19.10
2017-08-03T22:24:16.437Z,19.10
2017-08-03T22:26:45.711Z,19.10
2017-08-03T22:29:15.005Z,19.10
2017-08-03T22:31:44.280Z,19.10
2017-08-03T22:34:13.590Z,19.10
2017-08-03T22:36:42.869Z,19.10
2017-08-03T22:39:12.289Z,19.10
2017-08-03T22:41:41.550Z,19.00
2017-08-03T22:44:10.819Z,19.00
2017-08-03T22:46:40.074Z,19.00
2017-08-03T22:49:09.318Z,19.00
2017-08-03T22:51:38.640Z,18.80
2017-08-03T22:54:08.090Z,18.80
2017-08-03T22:56:37.357Z,18.70
2017-08-03T22:59:06.619Z,18.70
2017-08-03T23:01:35.851Z,18.70
2017-08-03T23:04:05.219Z,18.70
2017-08-03T23:06:34.499Z,18.70
2017-08-03T23:09:03.768Z,18.60
2017-08-03T23:11:33.050Z,18.60
2017-08-03T23:14:02.551Z,18.50
2017-08-03T23:16:31.818Z,18.50
2017-08-03T23:19:01.058Z,18.40
2017-08-03T23:21:30.321Z,18.40
2017-08-03T23:23:59.570Z,18.40
2017-08-03T23:26:28.962Z,18.30
2017-08-03T23:28:58.247Z,18.20
2017-08-03T23:31:27.517Z,18.10
2017-08-03T23:33:56.792Z,18.00
2017-08-03T23:36:26.039Z,18.00
2017-08-03T23:38:56.078Z,17.90
2017-08-03T23:41:25.564Z,17.90
2017-08-03T23:43:54.964Z,17.90
2017-08-03T23:46:24.222Z,17.90
2017-08-03T23:48:53.466Z,17.90
2017-08-03T23:51:23.315Z,17.80
2017-08-03T23:53:52.573Z,17.80
2017-08-03T23:56:21.848Z,17.80
2017-08-03T23:58:51.697Z,17.80
